createdAt,value
2018-12-13T00:00:44.635Z,17.62
2018-12-13T00:03:12.841Z,16.57
2018-12-13T00:05:41.068Z,16.82
2018-12-13T00:08:09.315Z,17.40
2018-12-13T00:10:41.036Z,17.27
2018-12-13T00:13:09.238Z,17.20
2018-12-13T00:15:37.442Z,17.70
2018-12-13T00:18:18.036Z,17.42
2018-12-13T00:20:49.560Z,16.40
2018-12-13T00:23:17.775Z,18.45
2018-12-13T00:25:46.051Z,17.60
2018-12-13T00:28:14.241Z,17.15
2018-12-13T00:30:45.612Z,17.00
2018-12-13T00:33:13.790Z,15.23
2018-12-13T00:35:42.012Z,16.02
2018-12-13T00:38:10.282Z,14.85
2018-12-13T00:40:41.926Z,16.82
2018-12-13T00:43:13.788Z,15.68
2018-12-13T00:45:42.005Z,15.05
2018-12-13T00:48:10.304Z,15.90
2018-12-13T00:50:42.066Z,15.00
2018-12-13T00:56:14.966Z,17.48
2018-12-13T00:58:43.162Z,18.10
2018-12-13T01:01:14.270Z,17.23
2018-12-13T01:03:42.617Z,15.88
2018-12-13T01:06:10.795Z,16.97
2018-12-13T01:08:39.006Z,14.75
2018-12-13T01:11:10.651Z,14.93
2018-12-13T01:16:23.850Z,14.53
2018-12-13T01:18:52.089Z,15.03
2018-12-13T01:21:35.220Z,14.60
2018-12-13T01:24:03.442Z,14.73
2018-12-13T01:26:31.693Z,15.85
2018-12-13T01:28:59.901Z,15.40
2018-12-13T01:31:41.085Z,15.45
2018-12-13T01:34:09.314Z,15.95
2018-12-13T01:36:37.563Z,16.77
2018-12-13T01:39:06.143Z,16.15
2018-12-13T01:41:47.281Z,16.23
2018-12-13T01:44:15.511Z,15.55
2018-12-13T01:46:43.733Z,15.48
2018-12-13T01:49:24.481Z,16.50
2018-12-13T01:52:09.706Z,15.43
2018-12-13T01:54:37.933Z,14.85
2018-12-13T01:57:06.171Z,16.62
2018-12-13T01:59:34.394Z,15.60
2018-12-13T02:02:05.937Z,16.40
2018-12-13T02:04:34.175Z,16.35
2018-12-13T02:07:02.459Z,16.07
2018-12-13T02:09:30.691Z,17.23
2018-12-13T02:12:13.786Z,16.07
2018-12-13T02:14:42.001Z,16.32
2018-12-13T02:17:10.300Z,16.50
2018-12-13T02:19:38.526Z,17.25
2018-12-13T02:22:06.778Z,15.00
2018-12-13T02:24:35.004Z,16.05
2018-12-13T02:27:03.338Z,16.37
2018-12-13T02:29:31.536Z,17.15
2018-12-13T02:32:12.562Z,17.00
2018-12-13T02:34:40.798Z,16.10
2018-12-13T02:37:09.011Z,16.40
2018-12-13T02:39:37.223Z,14.00
2018-12-13T02:42:20.045Z,15.65
2018-12-13T02:44:48.255Z,15.03
2018-12-13T02:47:16.422Z,16.15
2018-12-13T02:49:44.618Z,15.48
2018-12-13T02:52:12.863Z,16.10
2018-12-13T02:54:41.088Z,17.23
2018-12-13T02:57:09.299Z,17.05
2018-12-13T02:59:37.539Z,17.45
2018-12-13T03:02:07.135Z,17.60
2018-12-13T03:04:35.365Z,15.93
2018-12-13T03:07:03.663Z,17.30
2018-12-13T03:09:31.893Z,17.00
2018-12-13T03:12:12.800Z,16.42
2018-12-13T03:14:41.018Z,16.85
2018-12-13T03:17:15.600Z,16.65
2018-12-13T03:19:43.846Z,16.45
2018-12-13T03:22:12.085Z,17.23
2018-12-13T03:24:40.321Z,16.80
2018-12-13T03:27:08.574Z,15.45
2018-12-13T03:29:36.767Z,14.90
2018-12-13T03:32:08.697Z,14.40
2018-12-13T03:34:37.093Z,15.32
2018-12-13T03:37:05.352Z,16.10
2018-12-13T03:39:36.535Z,15.68
2018-12-13T03:42:14.430Z,15.80
2018-12-13T03:44:42.689Z,16.02
2018-12-13T03:47:10.906Z,15.25
2018-12-13T03:49:39.599Z,15.90
2018-12-13T03:52:07.802Z,15.32
2018-12-13T03:54:36.027Z,15.78
2018-12-13T03:57:04.280Z,15.05
2018-12-13T03:59:32.563Z,15.70
2018-12-13T04:05:16.236Z,14.25
2018-12-13T04:07:44.471Z,15.83
2018-12-13T04:10:15.845Z,14.70
2018-12-13T04:12:44.056Z,14.35
2018-12-13T04:15:12.342Z,15.45
2018-12-13T04:17:40.543Z,15.55
2018-12-13T04:20:08.886Z,17.12
2018-12-13T04:22:37.112Z,15.05
2018-12-13T04:25:05.422Z,14.00
2018-12-13T04:27:33.644Z,15.35
2018-12-13T04:30:01.878Z,16.02
2018-12-13T04:32:30.135Z,15.78
2018-12-13T04:34:58.326Z,15.85
2018-12-13T04:37:26.720Z,15.20
2018-12-13T04:39:54.901Z,15.93
2018-12-13T04:42:23.087Z,16.23
2018-12-13T04:44:51.294Z,16.65
2018-12-13T04:47:19.515Z,16.57
2018-12-13T04:49:47.709Z,17.57
2018-12-13T04:52:15.889Z,15.95
2018-12-13T04:54:44.257Z,16.57
2018-12-13T04:57:12.502Z,17.27
2018-12-13T04:59:40.731Z,17.57
2018-12-13T05:02:08.946Z,19.02
2018-12-13T05:04:37.126Z,17.80
2018-12-13T05:07:05.345Z,18.15
2018-12-13T05:09:33.529Z,19.10
2018-12-13T05:12:18.743Z,18.50
2018-12-13T05:14:47.012Z,19.57
2018-12-13T05:17:15.259Z,19.85
2018-12-13T05:19:43.490Z,21.52
2018-12-13T05:22:11.725Z,20.37
2018-12-13T05:24:39.943Z,21.45
2018-12-13T05:27:08.199Z,21.23
2018-12-13T05:29:36.545Z,20.90
2018-12-13T05:32:17.925Z,19.80
2018-12-13T05:34:46.118Z,22.20
2018-12-13T05:37:14.334Z,20.65
2018-12-13T05:39:42.542Z,20.50
2018-12-13T05:42:10.747Z,22.10
2018-12-13T05:44:38.977Z,21.12
2018-12-13T05:47:20.407Z,21.55
2018-12-13T05:49:48.634Z,21.52
2018-12-13T05:52:16.799Z,22.00
2018-12-13T05:54:45.004Z,21.33
2018-12-13T05:57:13.287Z,22.70
2018-12-13T05:59:41.528Z,21.80
2018-12-13T06:02:09.779Z,22.17
2018-12-13T06:07:41.363Z,21.35
2018-12-13T06:10:10.062Z,21.85
2018-12-13T06:12:38.279Z,20.92
2018-12-13T06:15:06.731Z,21.02
2018-12-13T06:17:34.955Z,20.75
2018-12-13T06:20:04.473Z,21.27
2018-12-13T06:25:36.091Z,22.15
2018-12-13T06:28:04.331Z,22.17
2018-12-13T06:30:47.294Z,24.02
2018-12-13T06:33:15.487Z,22.40
2018-12-13T06:35:43.666Z,23.27
2018-12-13T06:38:11.871Z,22.25
2018-12-13T06:40:53.449Z,23.77
2018-12-13T06:43:21.704Z,22.80
2018-12-13T06:45:49.927Z,21.97
2018-12-13T06:48:18.130Z,22.98
2018-12-13T06:50:52.940Z,23.73
2018-12-13T06:53:21.114Z,22.40
2018-12-13T06:55:49.439Z,21.77
2018-12-13T06:58:17.640Z,23.73
2018-12-13T07:00:58.973Z,20.85
2018-12-13T07:03:27.185Z,22.67
2018-12-13T07:05:55.448Z,21.05
2018-12-13T07:08:23.646Z,21.73
2018-12-13T07:11:06.502Z,20.40
2018-12-13T07:13:34.738Z,23.20
2018-12-13T07:16:03.070Z,21.30
2018-12-13T07:18:45.840Z,19.40
2018-12-13T07:21:20.131Z,20.45
2018-12-13T07:23:48.302Z,20.75
2018-12-13T07:26:29.458Z,21.57
2018-12-13T07:28:57.776Z,21.02
2018-12-13T07:31:32.398Z,21.37
2018-12-13T07:34:00.632Z,19.48
2018-12-13T07:36:28.927Z,20.50
2018-12-13T07:38:57.965Z,21.27
2018-12-13T07:41:39.758Z,22.77
2018-12-13T07:44:20.906Z,22.80
2018-12-13T07:46:49.179Z,23.98
2018-12-13T07:49:23.770Z,20.62
2018-12-13T07:51:58.160Z,21.50
2018-12-13T07:54:26.363Z,23.12
2018-12-13T07:56:54.605Z,22.00
2018-12-13T07:59:22.806Z,22.13
2018-12-13T08:01:54.142Z,24.50
2018-12-13T08:07:21.419Z,22.77
2018-12-13T08:09:49.599Z,23.73
2018-12-13T08:12:18.102Z,23.67
2018-12-13T08:14:47.698Z,24.85
2018-12-13T08:17:15.859Z,23.55
2018-12-13T08:19:44.048Z,23.85
2018-12-13T08:22:12.230Z,24.87
2018-12-13T08:24:40.429Z,21.97
2018-12-13T08:27:08.612Z,21.90
2018-12-13T08:29:36.785Z,22.25
2018-12-13T08:32:08.818Z,22.58
2018-12-13T08:34:37.174Z,22.40
2018-12-13T08:37:05.388Z,22.35
2018-12-13T08:39:33.537Z,21.90
2018-12-13T08:42:05.452Z,22.67
2018-12-13T08:44:33.626Z,23.42
2018-12-13T08:47:01.839Z,24.67
2018-12-13T08:49:30.137Z,22.27
2018-12-13T08:52:01.721Z,23.95
2018-12-13T08:54:29.917Z,21.97
2018-12-13T08:56:58.150Z,22.82
2018-12-13T08:59:26.339Z,21.77
2018-12-13T09:01:57.788Z,23.95
2018-12-13T09:04:25.949Z,21.25
2018-12-13T09:06:54.165Z,22.73
2018-12-13T09:09:22.322Z,23.98
2018-12-13T09:11:56.225Z,24.15
2018-12-13T09:14:30.866Z,25.32
2018-12-13T09:16:59.071Z,23.12
2018-12-13T09:19:27.262Z,23.60
2018-12-13T09:21:59.178Z,24.27
2018-12-13T09:24:27.334Z,23.52
2018-12-13T09:26:55.534Z,24.70
2018-12-13T09:29:23.774Z,23.20
2018-12-13T09:31:57.718Z,22.77
2018-12-13T09:34:25.902Z,23.57
2018-12-13T09:36:54.065Z,23.00
2018-12-13T09:39:22.283Z,24.60
2018-12-13T09:41:53.573Z,24.50
2018-12-13T09:44:21.762Z,26.43
2018-12-13T09:46:49.922Z,23.97
2018-12-13T09:49:18.102Z,25.30
2018-12-13T09:51:49.897Z,23.83
2018-12-13T09:54:18.117Z,25.72
2018-12-13T09:56:46.288Z,24.03
2018-12-13T09:59:14.461Z,23.67
2018-12-13T10:01:45.822Z,23.53
2018-12-13T10:04:13.998Z,23.10
2018-12-13T10:06:42.157Z,22.23
2018-12-13T10:09:10.335Z,21.97
2018-12-13T10:11:42.302Z,22.73
2018-12-13T10:14:10.539Z,22.17
2018-12-13T10:16:38.724Z,21.97
2018-12-13T10:19:07.002Z,22.67
2018-12-13T10:21:38.930Z,24.32
2018-12-13T10:24:07.855Z,24.05
2018-12-13T10:26:37.091Z,23.20
2018-12-13T10:29:05.465Z,20.82
2018-12-13T10:31:37.283Z,23.02
2018-12-13T10:34:05.529Z,24.35
2018-12-13T10:36:33.705Z,23.05
2018-12-13T10:39:01.886Z,22.80
2018-12-13T10:41:33.565Z,21.60
2018-12-13T10:44:01.775Z,21.40
2018-12-13T10:46:29.938Z,22.00
2018-12-13T10:48:58.129Z,22.75
2018-12-13T10:51:30.024Z,20.92
2018-12-13T10:53:58.200Z,21.07
2018-12-13T10:56:26.373Z,21.45
2018-12-13T10:58:54.553Z,23.22
2018-12-13T11:01:45.017Z,31.37
2018-12-13T11:04:13.194Z,37.25
2018-12-13T11:06:41.418Z,26.10
2018-12-13T11:09:09.600Z,29.42
2018-12-13T11:11:41.653Z,22.50
2018-12-13T11:14:09.838Z,21.48
2018-12-13T11:16:38.048Z,21.42
2018-12-13T11:19:06.270Z,19.87
2018-12-13T11:21:37.687Z,19.20
2018-12-13T11:24:05.924Z,18.05
2018-12-13T11:26:34.092Z,17.98
2018-12-13T11:29:13.968Z,18.50
2018-12-13T11:34:19.718Z,16.17
2018-12-13T11:36:47.911Z,17.50
2018-12-13T11:39:16.126Z,15.75
2018-12-13T11:41:50.513Z,16.42
2018-12-13T11:44:18.856Z,15.60
2018-12-13T11:46:47.048Z,15.83
2018-12-13T11:49:15.257Z,16.27
2018-12-13T11:51:46.934Z,15.32
2018-12-13T11:54:19.609Z,14.77
2018-12-13T11:56:49.133Z,15.60
2018-12-13T11:59:17.320Z,13.67
2018-12-13T12:01:48.491Z,16.05
2018-12-13T12:04:16.670Z,15.53
2018-12-13T12:06:44.827Z,16.37
2018-12-13T12:09:12.989Z,15.50
2018-12-13T12:11:44.045Z,16.27
2018-12-13T12:14:12.270Z,16.13
2018-12-13T12:16:40.434Z,15.93
2018-12-13T12:19:08.649Z,14.17
2018-12-13T12:21:40.421Z,16.50
2018-12-13T12:24:08.598Z,17.53
2018-12-13T12:26:36.753Z,15.63
2018-12-13T12:29:04.943Z,15.80
2018-12-13T12:31:39.598Z,14.27
2018-12-13T12:34:07.760Z,15.33
2018-12-13T12:36:35.935Z,15.20
2018-12-13T12:39:06.382Z,16.30
2018-12-13T12:41:38.081Z,15.57
2018-12-13T12:44:06.790Z,15.83
2018-12-13T12:46:34.946Z,15.50
2018-12-13T12:49:03.099Z,16.53
2018-12-13T12:51:34.453Z,15.47
2018-12-13T12:54:02.601Z,15.37
2018-12-13T12:56:30.793Z,16.03
2018-12-13T12:58:58.990Z,15.60
2018-12-13T13:01:30.762Z,15.77
2018-12-13T13:03:58.933Z,14.70
2018-12-13T13:06:27.115Z,15.45
2018-12-13T13:08:55.321Z,15.48
2018-12-13T13:11:26.950Z,14.73
2018-12-13T13:13:55.246Z,15.70
2018-12-13T13:16:23.466Z,22.32
2018-12-13T13:18:51.629Z,16.82
2018-12-13T13:21:23.515Z,15.58
2018-12-13T13:26:25.978Z,17.75
2018-12-13T13:28:54.142Z,15.87
2018-12-13T13:31:25.810Z,22.20
2018-12-13T13:33:53.974Z,18.90
2018-12-13T13:36:22.194Z,19.23
2018-12-13T13:38:50.422Z,15.90
2018-12-13T13:41:24.492Z,16.25
2018-12-13T13:43:52.687Z,16.00
2018-12-13T13:46:20.909Z,15.77
2018-12-13T13:48:49.066Z,15.68
2018-12-13T13:51:23.640Z,16.00
2018-12-13T13:53:51.798Z,15.65
2018-12-13T13:56:19.978Z,15.20
2018-12-13T13:59:00.858Z,14.93
2018-12-13T14:01:32.775Z,14.93
2018-12-13T14:04:00.937Z,15.68
2018-12-13T14:06:29.102Z,15.70
2018-12-13T14:08:57.358Z,14.10
2018-12-13T14:11:29.535Z,15.50
2018-12-13T14:13:57.691Z,15.23
2018-12-13T14:16:25.976Z,15.90
2018-12-13T14:18:54.215Z,15.27
2018-12-13T14:21:28.457Z,15.15
2018-12-13T14:23:56.639Z,15.63
2018-12-13T14:26:24.848Z,16.00
2018-12-13T14:28:52.996Z,16.17
2018-12-13T14:31:27.655Z,16.40
2018-12-13T14:33:55.817Z,16.65
2018-12-13T14:36:24.018Z,15.75
2018-12-13T14:38:52.492Z,16.90
2018-12-13T14:41:23.794Z,16.40
2018-12-13T14:43:51.969Z,16.75
2018-12-13T14:46:20.133Z,17.77
2018-12-13T14:48:48.377Z,18.17
2018-12-13T14:51:19.800Z,18.30
2018-12-13T14:53:47.984Z,16.17
2018-12-13T14:56:16.153Z,15.73
2018-12-13T14:58:44.378Z,18.12
2018-12-13T15:01:16.251Z,23.30
2018-12-13T15:03:44.429Z,21.97
2018-12-13T15:06:12.629Z,17.48
2018-12-13T15:08:40.822Z,16.15
2018-12-13T15:14:59.361Z,15.98
2018-12-13T15:17:27.579Z,20.52
2018-12-13T15:19:55.774Z,21.35
2018-12-13T15:22:23.976Z,20.23
2018-12-13T15:24:52.162Z,23.15
2018-12-13T15:27:20.354Z,23.15
2018-12-13T15:29:48.521Z,18.87
2018-12-13T15:32:16.725Z,16.12
2018-12-13T15:34:44.895Z,16.07
2018-12-13T15:37:13.087Z,17.50
2018-12-13T15:39:41.277Z,16.73
2018-12-13T15:42:09.493Z,17.40
2018-12-13T15:44:37.657Z,17.25
2018-12-13T15:47:05.832Z,17.17
2018-12-13T15:49:34.156Z,17.70
2018-12-13T15:52:02.338Z,16.80
2018-12-13T15:54:30.562Z,17.80
2018-12-13T15:56:58.766Z,17.77
2018-12-13T15:59:26.953Z,17.23
2018-12-13T16:02:08.259Z,17.55
2018-12-13T16:04:36.446Z,17.55
2018-12-13T16:07:04.672Z,17.27
2018-12-13T16:09:32.860Z,16.97
2018-12-13T16:12:01.061Z,18.07
2018-12-13T16:14:29.265Z,17.65
2018-12-13T16:16:57.633Z,17.20
2018-12-13T16:19:25.998Z,17.82
2018-12-13T16:22:10.642Z,15.38
2018-12-13T16:24:38.833Z,16.80
2018-12-13T16:27:07.060Z,15.65
2018-12-13T16:29:35.244Z,15.72
2018-12-13T16:32:06.377Z,15.60
2018-12-13T16:34:34.593Z,16.10
2018-12-13T16:37:02.765Z,15.80
2018-12-13T16:39:30.945Z,16.32
2018-12-13T16:42:00.582Z,16.15
2018-12-13T16:44:29.661Z,16.00
2018-12-13T16:46:57.914Z,15.90
2018-12-13T16:49:26.127Z,16.40
2018-12-13T16:51:54.294Z,16.32
2018-12-13T16:54:22.492Z,15.98
2018-12-13T16:56:50.678Z,14.53
2018-12-13T16:59:18.879Z,15.20
2018-12-13T17:01:48.414Z,15.38
2018-12-13T17:04:16.587Z,15.38
2018-12-13T17:06:44.789Z,15.10
2018-12-13T17:09:12.974Z,15.83
2018-12-13T17:11:53.602Z,15.08
2018-12-13T17:17:37.556Z,16.27
2018-12-13T17:20:19.594Z,17.10
2018-12-13T17:22:47.766Z,15.35
2018-12-13T17:25:15.980Z,16.17
2018-12-13T17:27:44.153Z,15.68
2018-12-13T17:30:28.664Z,16.62
2018-12-13T17:32:56.920Z,17.77
2018-12-13T17:35:25.114Z,16.30
2018-12-13T17:37:53.326Z,16.77
2018-12-13T17:40:24.796Z,16.30
2018-12-13T17:42:53.148Z,15.78
2018-12-13T17:45:21.357Z,17.00
2018-12-13T17:47:49.558Z,17.45
2018-12-13T17:50:24.065Z,17.55
2018-12-13T17:52:52.226Z,15.95
2018-12-13T17:55:20.447Z,16.83
2018-12-13T17:57:48.975Z,16.77
2018-12-13T18:00:18.321Z,17.37
2018-12-13T18:02:46.533Z,16.97
2018-12-13T18:05:14.761Z,18.27
2018-12-13T18:07:42.943Z,18.57
2018-12-13T18:13:14.418Z,18.00
2018-12-13T18:15:42.593Z,17.92
2018-12-13T18:18:10.775Z,18.43
2018-12-13T18:20:51.838Z,18.73
2018-12-13T18:23:20.557Z,17.12
2018-12-13T18:25:48.743Z,17.97
2018-12-13T18:28:16.920Z,18.42
2018-12-13T18:30:46.517Z,17.62
2018-12-13T18:33:14.690Z,17.17
2018-12-13T18:35:42.854Z,17.07
2018-12-13T18:38:11.026Z,17.17
2018-12-13T18:40:52.122Z,18.23
2018-12-13T18:43:20.389Z,17.70
2018-12-13T18:45:48.580Z,17.07
2018-12-13T18:48:16.736Z,18.50
2018-12-13T18:50:57.864Z,18.40
2018-12-13T18:53:26.071Z,18.17
2018-12-13T18:55:54.241Z,18.77
2018-12-13T18:58:22.425Z,19.48
2018-12-13T19:03:47.594Z,20.62
2018-12-13T19:06:15.750Z,18.47
2018-12-13T19:08:43.909Z,20.57
2018-12-13T19:11:26.508Z,21.02
2018-12-13T19:13:54.689Z,20.62
2018-12-13T19:16:22.909Z,19.55
2018-12-13T19:18:51.092Z,20.52
2018-12-13T19:21:33.791Z,21.12
2018-12-13T19:24:01.956Z,20.17
2018-12-13T19:26:30.139Z,21.52
2018-12-13T19:28:58.293Z,20.90
2018-12-13T19:31:30.031Z,21.87
2018-12-13T19:33:59.420Z,22.80
2018-12-13T19:36:27.622Z,21.27
2018-12-13T19:38:55.855Z,21.30
2018-12-13T19:41:37.707Z,22.50
2018-12-13T19:44:05.915Z,20.90
2018-12-13T19:46:34.104Z,22.32
2018-12-13T19:49:14.881Z,24.20
2018-12-13T19:54:41.653Z,22.80
2018-12-13T19:57:09.892Z,21.50
2018-12-13T20:02:35.818Z,21.45
2018-12-13T20:05:04.968Z,20.90
2018-12-13T20:07:33.266Z,22.93
2018-12-13T20:10:01.444Z,22.25
2018-12-13T20:12:29.638Z,22.52
2018-12-13T20:14:57.806Z,22.37
2018-12-13T20:17:26.011Z,22.02
2018-12-13T20:19:54.324Z,21.82
2018-12-13T20:22:22.517Z,22.15
2018-12-13T20:24:50.692Z,20.52
2018-12-13T20:27:19.018Z,21.43
2018-12-13T20:29:47.250Z,21.30
2018-12-13T20:32:15.741Z,21.05
2018-12-13T20:34:57.309Z,20.23
2018-12-13T20:37:38.555Z,21.57
2018-12-13T20:40:10.264Z,21.82
2018-12-13T20:42:38.536Z,19.95
2018-12-13T20:45:07.313Z,21.40
2018-12-13T20:47:35.513Z,19.73
2018-12-13T20:50:04.601Z,21.30
2018-12-13T20:52:32.849Z,20.45
2018-12-13T20:55:01.053Z,20.95
2018-12-13T20:57:29.433Z,21.20
2018-12-13T20:59:57.597Z,19.10
2018-12-13T21:02:25.766Z,20.85
2018-12-13T21:04:53.969Z,19.02
2018-12-13T21:07:27.762Z,19.52
2018-12-13T21:09:56.187Z,20.27
2018-12-13T21:12:24.393Z,18.07
2018-12-13T21:14:52.558Z,17.75
2018-12-13T21:17:20.749Z,17.27
2018-12-13T21:19:48.916Z,18.07
2018-12-13T21:22:17.104Z,18.20
2018-12-13T21:24:45.275Z,17.77
2018-12-13T21:27:13.478Z,17.10
2018-12-13T21:29:41.666Z,18.73
2018-12-13T21:32:09.872Z,16.90
2018-12-13T21:34:38.066Z,17.67
2018-12-13T21:37:06.290Z,17.90
2018-12-13T21:39:34.505Z,16.42
2018-12-13T21:42:08.998Z,16.55
2018-12-13T21:44:37.153Z,16.90
2018-12-13T21:47:05.329Z,15.80
2018-12-13T21:49:33.500Z,16.50
2018-12-13T21:52:05.181Z,16.50
2018-12-13T21:54:33.379Z,16.57
2018-12-13T21:57:01.809Z,16.50
2018-12-13T21:59:29.985Z,16.80
2018-12-13T22:02:01.994Z,17.10
2018-12-13T22:04:30.394Z,16.65
2018-12-13T22:06:58.711Z,17.02
2018-12-13T22:09:26.879Z,16.45
2018-12-13T22:11:58.898Z,17.00
2018-12-13T22:14:27.128Z,17.90
2018-12-13T22:16:56.315Z,16.87
2018-12-13T22:19:24.614Z,16.20
2018-12-13T22:21:55.846Z,15.60
2018-12-13T22:24:24.101Z,16.30
2018-12-13T22:26:52.406Z,17.00
2018-12-13T22:29:20.636Z,15.90
2018-12-13T22:31:55.557Z,16.62
2018-12-13T22:34:24.093Z,15.48
2018-12-13T22:36:52.390Z,16.17
2018-12-13T22:39:20.635Z,14.93
2018-12-13T22:41:52.082Z,16.73
2018-12-13T22:44:20.287Z,17.15
2018-12-13T22:46:48.512Z,16.87
2018-12-13T22:49:16.708Z,15.83
2018-12-13T22:51:47.962Z,16.75
2018-12-13T22:54:16.177Z,16.52
2018-12-13T22:56:44.372Z,15.53
2018-12-13T22:59:12.692Z,15.40
2018-12-13T23:01:44.167Z,16.17
2018-12-13T23:04:12.379Z,16.12
2018-12-13T23:06:40.585Z,15.35
2018-12-13T23:09:08.856Z,16.02
2018-12-13T23:11:43.251Z,17.53
2018-12-13T23:14:11.513Z,16.37
2018-12-13T23:16:40.280Z,15.63
2018-12-13T23:19:08.484Z,15.90
2018-12-13T23:21:39.745Z,16.17
2018-12-13T23:24:08.523Z,17.50
2018-12-13T23:26:36.750Z,15.58
2018-12-13T23:29:04.962Z,17.20
2018-12-13T23:31:40.294Z,17.10
2018-12-13T23:34:08.670Z,16.80
2018-12-13T23:36:36.889Z,15.80
2018-12-13T23:39:05.300Z,16.80
2018-12-13T23:41:39.313Z,16.62
2018-12-13T23:44:07.034Z,15.45
2018-12-13T23:46:35.275Z,16.67
2018-12-13T23:49:03.488Z,17.05
2018-12-13T23:51:37.928Z,16.82
2018-12-13T23:54:06.178Z,17.05
2018-12-13T23:56:34.364Z,18.52
2018-12-13T23:59:02.574Z,17.90
